Flood From: 21-02-2018 18:00 Until: 22-02-2018 16:00 warning for: Flood Level: Yellow info button

Although rather usual in this region, locally or potentially dangerous phenomena are expected. (such as local winds, summer thunderstorms, rising streams or high waves) Be aware and pay attention to the latest weather updates, especially if you carry out activities exposed to weather or close to a stream or shoreline. 


Meteo18 Weather Cam more information Meteo18 Weather Cam


Thunder radar more information blitzortung!


Rain radar more information rain snow radar


Visit our other weather sites:

Template documentation
and downloads

And another site



Weather Underground History page Text

Daily Summary for June 20, 2017 Units:  Metric    English   Both
« Previous Day
Next Day »
Daily Weekly Monthly Yearly Custom
  High: Low: Average:
Temperature: -17.8 °C -7.3 °C -2.7 °C
Dew Point: -17.8 °C -8.7 °C -7.8 °C
Humidity: Humidity % 35 % 60 %
Wind Speed: 0 km/h 0 km/h 4.5 km/h
Wind Gust: 0 km/h - -
Wind:- - SSW
Pressure: 0 hPa 34371.3 hPa -
Precipitation: 0 mm    
Historical Graphs
 
 
Tabular Data for June 20, 2017
Time Temperature Dew Point Pressure Wind Wind Speed Wind Gust Humidity Rainfall Rate (Hourly)
-17.8 °C -17.8 °C 0 hPa Calm     Humidity % 0 mm
00:02 -5.1 °C -7.9 °C 34442.4 hPa Calm     73 % 0 mm
00:07 -5.2 °C -7.9 °C 34442.4 hPa WNW 2.6 km/h 2.6 km/h 74 % 0 mm
00:12 -5.2 °C -7.9 °C 34442.4 hPa Calm   2.6 km/h 74 % 0 mm
00:17 -5.2 °C -8.1 °C 34442.4 hPa Calm   2.6 km/h 73 % 0 mm
00:27 -5.2 °C -8.1 °C 34442.4 hPa Calm   2.6 km/h 73 % 0 mm
00:32 -5.2 °C -8.1 °C 34442.4 hPa Calm   2.6 km/h 73 % 0 mm
00:42 -5.2 °C -8.1 °C 34442.4 hPa Calm   2.6 km/h 73 % 0 mm
00:47 -5.3 °C -8.2 °C 34442.4 hPa Calm   2.6 km/h 73 % 0 mm
00:52 -5.4 °C -8 °C 34442.4 hPa Calm   2.6 km/h 75 % 0 mm
00:57 -5.6 °C -8.1 °C 34442.4 hPa Calm   2.6 km/h 75 % 0 mm
01:02 -5.6 °C -8.1 °C 34442.4 hPa Calm   2.6 km/h 76 % 0 mm
01:07 -5.7 °C -8.1 °C 34442.4 hPa Calm     76 % 0 mm
01:12 -5.8 °C -8.1 °C 34442.4 hPa Calm     77 % 0 mm
01:17 -5.7 °C -8.1 °C 34442.4 hPa Calm     77 % 0 mm
01:22 -5.7 °C -8.1 °C 34442.4 hPa Calm     76 % 0 mm
01:32 -5.8 °C -8.2 °C 34442.4 hPa ENE 2.6 km/h   76 % 0 mm
01:37 -6 °C -8.2 °C 34442.4 hPa Calm   10.3 km/h 78 % 0 mm
01:42 -6.2 °C -8.4 °C 34442.4 hPa SSW 2.6 km/h 10.3 km/h 78 % 0 mm
01:47 -6.3 °C -8.4 °C 34442.4 hPa Calm   10.3 km/h 79 % 0 mm
01:52 -6.4 °C -8.3 °C 34442.4 hPa Calm   2.6 km/h 81 % 0 mm
01:57 -6.5 °C -8.3 °C 34442.4 hPa Calm   2.6 km/h 82 % 0 mm
02:02 -6.6 °C -8.4 °C 34442.4 hPa Calm   2.6 km/h 82 % 0 mm
02:12 -6.5 °C -8.3 °C 34442.4 hPa Calm   5.1 km/h 82 % 0 mm
02:17 -6.5 °C -8.4 °C 34442.4 hPa NNE 7.7 km/h 7.7 km/h 81 % 0 mm
02:27 -6.7 °C -8.5 °C 34442.4 hPa North 2.6 km/h 10.3 km/h 82 % 0 mm
02:32 -6.7 °C -8.4 °C 34442.4 hPa West 5.1 km/h 10.3 km/h 83 % 0 mm
02:42 -6.6 °C -8.3 °C 34442.4 hPa Calm   10.3 km/h 82 % 0 mm
02:47 -6.3 °C -8.2 °C 34442.4 hPa NNW 2.6 km/h 10.3 km/h 81 % 0 mm
02:52 -6.1 °C -8.2 °C 34428.8 hPa NNW 5.1 km/h 5.1 km/h 79 % 0 mm
02:57 -6 °C -8.2 °C 34428.8 hPa NW 7.7 km/h 7.7 km/h 78 % 0 mm
03:02 -6.1 °C -8.3 °C 34428.8 hPa Calm   7.7 km/h 78 % 0 mm
03:07 -6.2 °C -8.3 °C 34428.8 hPa Calm   7.7 km/h 79 % 0 mm
03:12 -6.3 °C -8.4 °C 34428.8 hPa West 2.6 km/h 7.7 km/h 79 % 0 mm
03:17 -6.3 °C -8.2 °C 34428.8 hPa SW 7.7 km/h 7.7 km/h 81 % 0 mm
03:22 -6.6 °C -8.4 °C 34442.4 hPa Calm   25.9 km/h 81 % 0 mm
03:27 -6.6 °C -8.4 °C 34442.4 hPa Calm   25.9 km/h 81 % 0 mm
03:32 -6.6 °C -8.4 °C 34442.4 hPa SE 2.6 km/h 25.9 km/h 81 % 0 mm
03:42 -6.6 °C -8.4 °C 34442.4 hPa Calm   5.1 km/h 81 % 0 mm
03:47 -6.6 °C -8.4 °C 34442.4 hPa Calm   5.1 km/h 81 % 0 mm
03:52 -6.6 °C -8.3 °C 34442.4 hPa Calm   5.1 km/h 82 % 0 mm
03:57 -6.6 °C -8.4 °C 34442.4 hPa Calm   5.1 km/h 81 % 0 mm
04:02 -6.6 °C -8.4 °C 34442.4 hPa Calm   5.1 km/h 81 % 0 mm
04:07 -6.7 °C -8.6 °C 34428.8 hPa Calm     81 % 0 mm
04:12 -6.8 °C -8.6 °C 34428.8 hPa Calm     82 % 0 mm
04:17 -6.9 °C -8.6 °C 34442.4 hPa Calm     83 % 0 mm
04:22 -7 °C -8.6 °C 34428.8 hPa Calm     84 % 0 mm
04:32 -7 °C -8.4 °C 34428.8 hPa Calm   2.6 km/h 85 % 0 mm
04:42 -6.7 °C -8.4 °C 34428.8 hPa Calm   2.6 km/h 83 % 0 mm
04:47 -6.6 °C -8.4 °C 34428.8 hPa Calm   2.6 km/h 82 % 0 mm
04:52 -6.8 °C -8.4 °C 34428.8 hPa Calm   2.6 km/h 83 % 0 mm
05:02 -6.8 °C -8.4 °C 34428.8 hPa Calm     83 % 0 mm
05:12 -6.9 °C -8.4 °C 34428.8 hPa Calm     84 % 0 mm
05:17 -7 °C -8.6 °C 34442.4 hPa Calm     84 % 0 mm
05:22 -7.1 °C -8.6 °C 34442.4 hPa Calm     84 % 0 mm
05:32 -7.2 °C -8.6 °C 34442.4 hPa Calm     85 % 0 mm
05:37 -7.2 °C -8.6 °C 34442.4 hPa Calm   5.1 km/h 86 % 0 mm
05:42 -7.2 °C -8.6 °C 34442.4 hPa Calm   5.1 km/h 86 % 0 mm
05:47 -7.1 °C -8.4 °C 34442.4 hPa Calm   5.1 km/h 86 % 0 mm
05:52 -7.1 °C -8.5 °C 34442.4 hPa Calm   5.1 km/h 85 % 0 mm
06:02 -7.1 °C -8.6 °C 34442.4 hPa Calm   5.1 km/h 85 % 0 mm
06:12 -7.2 °C -8.7 °C 34442.4 hPa Calm   2.6 km/h 85 % 0 mm
06:17 -7.3 °C -8.6 °C 34442.4 hPa Calm     86 % 0 mm
06:22 -7.3 °C -8.6 °C 34442.4 hPa Calm     86 % 0 mm
06:32 -7.2 °C -8.4 °C 34442.4 hPa Calm   2.6 km/h 87 % 0 mm
06:42 -7.2 °C -8.5 °C 34452.6 hPa Calm   2.6 km/h 86 % 0 mm
07:02 -7 °C -8.4 °C 34452.6 hPa Calm     85 % 0 mm
07:12 -6.6 °C -8.1 °C 34452.6 hPa Calm     84 % 0 mm
07:17 -6.2 °C -7.8 °C 34452.6 hPa Calm     83 % 0 mm
07:22 -5.9 °C -7.8 °C 34452.6 hPa Calm     81 % 0 mm
07:32 -5.5 °C -7.7 °C 34452.6 hPa Calm     78 % 0 mm
07:42 -5.3 °C -7.4 °C 34452.6 hPa Calm     79 % 0 mm
07:47 -5.2 °C -7.5 °C 34452.6 hPa Calm     77 % 0 mm
07:52 -5.4 °C -7.7 °C 34452.6 hPa Calm     77 % 0 mm
08:02 -5.1 °C -7.3 °C 34462.7 hPa Calm     78 % 0 mm
08:07 -4.8 °C -7.3 °C 34462.7 hPa Calm     76 % 0 mm
08:12 -4.5 °C -7.2 °C 34462.7 hPa Calm     74 % 0 mm
08:17 -4.4 °C -7.2 °C 34462.7 hPa Calm     73 % 0 mm
08:22 -4.3 °C -7.2 °C 34462.7 hPa Calm     73 % 0 mm
08:32 -4 °C -7.1 °C 34462.7 hPa Calm   5.1 km/h 71 % 0 mm
08:42 -3.6 °C -7.1 °C 34462.7 hPa Calm   5.1 km/h 68 % 0 mm
08:47 -3.5 °C -7.2 °C 34462.7 hPa Calm   2.6 km/h 67 % 0 mm
08:52 -3.4 °C -7 °C 34452.6 hPa Calm   2.6 km/h 68 % 0 mm
09:02 -3 °C -6.9 °C 34462.7 hPa SSE 5.1 km/h 5.1 km/h 65 % 0 mm
09:12 -3.2 °C -7.3 °C 34462.7 hPa SSW 5.1 km/h 5.1 km/h 64 % 0 mm
09:17 -3.1 °C -7.3 °C 34462.7 hPa SE 5.1 km/h 12.9 km/h 63 % 0 mm
09:22 -3 °C -6.9 °C 34462.7 hPa SSW 2.6 km/h 12.9 km/h 65 % 0 mm
09:32 -2.6 °C -7.2 °C 34462.7 hPa SW 5.1 km/h 12.9 km/h 61 % 0 mm
09:42 -2.4 °C -7.2 °C 34462.7 hPa SW 2.6 km/h 7.7 km/h 59 % 0 mm
09:47 -2.4 °C -7.2 °C 34462.7 hPa SSW 2.6 km/h 12.9 km/h 59 % 0 mm
09:52 -2.3 °C -7.3 °C 34462.7 hPa WSW 5.1 km/h 12.9 km/h 58 % 0 mm
09:57 -2.3 °C -7.3 °C 34452.6 hPa SW 5.1 km/h 12.9 km/h 58 % 0 mm
10:02 -2.1 °C -7.4 °C 34462.7 hPa SSW 10.3 km/h 12.9 km/h 56 % 0 mm
10:12 -1.9 °C -7.4 °C 34452.6 hPa SSW 2.6 km/h 15.6 km/h 55 % 0 mm
10:17 -1.8 °C -7.4 °C 34452.6 hPa Calm   15.6 km/h 54 % 0 mm
10:22 -1.6 °C -7.4 °C 34452.6 hPa ESE 5.1 km/h 15.6 km/h 53 % 0 mm
10:32 -1.6 °C -7.3 °C 34452.6 hPa SW 10.3 km/h 10.3 km/h 54 % 0 mm
10:42 -1.4 °C -7.4 °C 34462.7 hPa SW 2.6 km/h 12.9 km/h 52 % 0 mm
10:52 -1.6 °C -7.4 °C 34462.7 hPa SW 5.1 km/h 15.6 km/h 53 % 0 mm
11:02 -1.4 °C -7.5 °C 34462.7 hPa SSW 10.3 km/h 20.8 km/h 52 % 0 mm
11:12 -1.3 °C -7.4 °C 34462.7 hPa SW 10.3 km/h 18.2 km/h 52 % 0 mm
11:17 -1.3 °C -7 °C 34462.7 hPa SW 7.7 km/h 15.6 km/h 54 % 0 mm
11:22 -1.3 °C -7.3 °C 34462.7 hPa Calm   15.6 km/h 52 % 0 mm
11:32 -0.9 °C -7 °C 34462.7 hPa SW 12.9 km/h 18.2 km/h 52 % 0 mm
11:42 -0.7 °C -7 °C 34462.7 hPa SSW 10.3 km/h 18.2 km/h 51 % 0 mm
11:47 -0.8 °C -6.9 °C 34462.7 hPa WSW 12.9 km/h 18.2 km/h 52 % 0 mm
11:52 -0.7 °C -7 °C 34462.7 hPa SSW 5.1 km/h 18.2 km/h 51 % 0 mm
12:02 -0.4 °C -7.1 °C 34462.7 hPa SSW 2.6 km/h 20.8 km/h 49 % 0 mm
12:07 -0.4 °C -6.9 °C 34462.7 hPa South 7.7 km/h 10.3 km/h 50 % 0 mm
12:12 -0.4 °C -7.1 °C 34462.7 hPa South 2.6 km/h 10.3 km/h 49 % 0 mm
12:17 -0.2 °C -7.1 °C 34462.7 hPa Calm   15.6 km/h 48 % 0 mm
12:22 -0.1 °C -6.9 °C 34462.7 hPa SSW 7.7 km/h 15.6 km/h 48 % 0 mm
12:32 -0.1 °C -6.9 °C 34462.7 hPa SE 2.6 km/h 12.9 km/h 48 % 0 mm
12:42 0.4 °C -6.8 °C 34452.6 hPa Calm   15.6 km/h 46 % 0 mm
12:47 0.2 °C -7.1 °C 34452.6 hPa South 7.7 km/h 15.6 km/h 46 % 0 mm
12:52 0.2 °C -7.3 °C 34452.6 hPa ESE 7.7 km/h 15.6 km/h 45 % 0 mm
12:57 0.1 °C -6.9 °C 34452.6 hPa South 7.7 km/h 15.6 km/h 47 % 0 mm
13:02 0.1 °C -7.2 °C 34452.6 hPa SSW 5.1 km/h 15.6 km/h 46 % 0 mm
13:12 0.2 °C -7.3 °C 34452.6 hPa ESE 2.6 km/h 18.2 km/h 45 % 0 mm
13:17 0.2 °C -7.3 °C 34452.6 hPa West 7.7 km/h 23.3 km/h 45 % 0 mm
13:22 0.2 °C -7.3 °C 34452.6 hPa West 5.1 km/h 23.3 km/h 45 % 0 mm
13:27 0.2 °C -7.5 °C 34452.6 hPa West 5.1 km/h 23.3 km/h 44 % 0 mm
13:32 0.3 °C -7.2 °C 34442.4 hPa SW 7.7 km/h 23.3 km/h 45 % 0 mm
13:37 0.3 °C -7.2 °C 34442.4 hPa SE 7.7 km/h 18.2 km/h 45 % 0 mm
13:42 0.3 °C -7.2 °C 34442.4 hPa Calm   18.2 km/h 45 % 0 mm
13:47 0.3 °C -7.3 °C 34442.4 hPa NNE 5.1 km/h 15.6 km/h 44 % 0 mm
13:52 0.4 °C -7.3 °C 34442.4 hPa SSW 5.1 km/h 15.6 km/h 44 % 0 mm
13:57 0.6 °C -6.7 °C 34442.4 hPa SE 2.6 km/h 20.8 km/h 46 % 0 mm
14:02 0.9 °C -7 °C 34442.4 hPa East 5.1 km/h 20.8 km/h 43 % 0 mm
14:12 0.7 °C -7.4 °C 34442.4 hPa West 10.3 km/h 20.8 km/h 42 % 0 mm
14:17 0.8 °C -7.2 °C 34442.4 hPa West 2.6 km/h 20.8 km/h 43 % 0 mm
14:22 0.7 °C -7.3 °C 34442.4 hPa SW 5.1 km/h 23.3 km/h 43 % 0 mm
14:32 0.7 °C -7.7 °C 34442.4 hPa South 15.6 km/h 23.3 km/h 41 % 0 mm
14:37 0.7 °C -7.3 °C 34428.8 hPa ENE 2.6 km/h 20.8 km/h 43 % 0 mm
14:42 0.9 °C -7.7 °C 34428.8 hPa SE 10.3 km/h 20.8 km/h 40 % 0 mm
14:47 1.1 °C -7.8 °C 34428.8 hPa ESE 2.6 km/h 20.8 km/h 39 % 0 mm
14:52 1.1 °C -7.8 °C 34428.8 hPa SW 12.9 km/h 15.6 km/h 39 % 0 mm
14:57 1.1 °C -8 °C 34428.8 hPa SSW 7.7 km/h 25.9 km/h 38 % 0 mm
15:02 1 °C -7.8 °C 34428.8 hPa SSW 10.3 km/h 25.9 km/h 39 % 0 mm
15:07 1 °C -8.1 °C 34428.8 hPa WNW 7.7 km/h 28.5 km/h 38 % 0 mm
15:12 1.1 °C -8.5 °C 34418.7 hPa WSW 10.3 km/h 28.5 km/h 36 % 0 mm
15:22 1.1 °C -8.2 °C 34428.8 hPa NNW 10.3 km/h 25.9 km/h 37 % 0 mm
15:32 1.2 °C -8.4 °C 34418.7 hPa Calm   25.9 km/h 36 % 0 mm
15:42 1.3 °C -8.6 °C 34418.7 hPa WNW 7.7 km/h 12.9 km/h 35 % 0 mm
15:47 1.2 °C -8.6 °C 34418.7 hPa Calm   18.2 km/h 35 % 0 mm
15:52 1.2 °C -8.1 °C 34418.7 hPa SSW 10.3 km/h 18.2 km/h 37 % 0 mm
15:57 1.3 °C -8.2 °C 34418.7 hPa WNW 7.7 km/h 25.9 km/h 36 % 0 mm
16:02 1.3 °C -8.6 °C 34418.7 hPa West 5.1 km/h 25.9 km/h 35 % 0 mm
16:12 1.2 °C -8.6 °C 34405.1 hPa NW 10.3 km/h 23.3 km/h 35 % 0 mm
16:22 1.4 °C -7.9 °C 34405.1 hPa SW 12.9 km/h 28.5 km/h 37 % 0 mm
16:32 1.3 °C -8.2 °C 34405.1 hPa West 7.7 km/h 31.1 km/h 36 % 0 mm
16:37 1.2 °C -8.1 °C 34405.1 hPa WSW 5.1 km/h 20.8 km/h 37 % 0 mm
16:42 1.3 °C -8.1 °C 34405.1 hPa West 10.3 km/h 20.8 km/h 37 % 0 mm
16:52 1.3 °C -8.2 °C 34405.1 hPa WNW 7.7 km/h 20.8 km/h 36 % 0 mm
17:02 1.2 °C -8.4 °C 34405.1 hPa SSW 7.7 km/h 20.8 km/h 36 % 0 mm
17:12 1.4 °C -8.4 °C 34395 hPa WSW 7.7 km/h 12.9 km/h 35 % 0 mm
17:17 1.3 °C -8.6 °C 34395 hPa SW 5.1 km/h 10.3 km/h 35 % 0 mm
17:22 1.4 °C -8.4 °C 34395 hPa SW 7.7 km/h 10.3 km/h 35 % 0 mm
17:32 1.8 °C -8.1 °C 34395 hPa North 12.9 km/h 12.9 km/h 35 % 0 mm
17:37 1.6 °C -8.1 °C 34395 hPa NNW 5.1 km/h 18.2 km/h 36 % 0 mm
17:42 1.6 °C -8.2 °C 34395 hPa West 10.3 km/h 18.2 km/h 35 % 0 mm
17:52 1.6 °C -8.1 °C 34384.8 hPa NW 10.3 km/h 23.3 km/h 36 % 0 mm
17:57 1.5 °C -8.1 °C 34384.8 hPa NNE 7.7 km/h 23.3 km/h 36 % 0 mm
18:02 1.4 °C -8.2 °C 34384.8 hPa WNW 5.1 km/h 23.3 km/h 36 % 0 mm
18:07 1.3 °C -8.5 °C 34384.8 hPa WNW 2.6 km/h 20.8 km/h 35 % 0 mm
18:12 1.3 °C -8.2 °C 34384.8 hPa NW 7.7 km/h 20.8 km/h 36 % 0 mm
18:17 1.2 °C -8.6 °C 34384.8 hPa West 7.7 km/h 20.8 km/h 35 % 0 mm
18:22 1.1 °C -8.4 °C 34384.8 hPa NNW 5.1 km/h 20.8 km/h 36 % 0 mm
18:27 1.1 °C -8.5 °C 34384.8 hPa NW 2.6 km/h 20.8 km/h 36 % 0 mm
18:32 1 °C -8.3 °C 34384.8 hPa WNW 2.6 km/h 15.6 km/h 37 % 0 mm
18:37 1 °C -8.1 °C 34384.8 hPa WNW 7.7 km/h 15.6 km/h 38 % 0 mm
18:42 0.9 °C -8.2 °C 34384.8 hPa WNW 5.1 km/h 10.3 km/h 38 % 0 mm
18:47 0.8 °C -8.3 °C 34384.8 hPa NW 5.1 km/h 12.9 km/h 38 % 0 mm
18:52 0.7 °C -8.1 °C 34371.3 hPa WNW 5.1 km/h 12.9 km/h 39 % 0 mm
18:57 0.6 °C -7.7 °C 34371.3 hPa Calm   12.9 km/h 41 % 0 mm
19:02 0.6 °C -7.5 °C 34384.8 hPa Calm   12.9 km/h 42 % 0 mm
19:12 0.4 °C -7.9 °C 34371.3 hPa WNW 2.6 km/h 7.7 km/h 41 % 0 mm
19:17 0.4 °C -7.4 °C 34371.3 hPa Calm   7.7 km/h 43 % 0 mm
19:22 0.4 °C -7.7 °C 34371.3 hPa Calm   7.7 km/h 42 % 0 mm
19:32 0.3 °C -7.4 °C 34384.8 hPa WNW 5.1 km/h 7.7 km/h 44 % 0 mm
19:42 0.1 °C -7.2 °C 34384.8 hPa Calm   7.7 km/h 46 % 0 mm
19:47 0 °C -7.4 °C 34384.8 hPa Calm   5.1 km/h 45 % 0 mm
19:57 0.1 °C -7 °C 34384.8 hPa Calm   2.6 km/h 47 % 0 mm
20:02 -0.2 °C -6.6 °C 34384.8 hPa Calm   2.6 km/h 51 % 0 mm
20:07 -0.4 °C -7.1 °C 34384.8 hPa Calm   2.6 km/h 49 % 0 mm
20:12 -0.4 °C -7.1 °C 34384.8 hPa Calm   2.6 km/h 49 % 0 mm
20:17 -0.4 °C -7.1 °C 34384.8 hPa Calm   2.6 km/h 49 % 0 mm
20:22 -0.5 °C -6.6 °C 34395 hPa Calm     52 % 0 mm
20:32 -0.7 °C -6.8 °C 34395 hPa Calm     52 % 0 mm
20:42 -0.7 °C -6.8 °C 34395 hPa Calm     52 % 0 mm
20:47 -0.8 °C -7.2 °C 34395 hPa Calm     50 % 0 mm
20:52 -0.7 °C -6.7 °C 34395 hPa Calm     53 % 0 mm
21:02 -0.8 °C -6.9 °C 34395 hPa Calm     52 % 0 mm
21:12 -1.2 °C -6.8 °C 34395 hPa NE 2.6 km/h 7.7 km/h 55 % 0 mm
21:17 -1.3 °C -7.2 °C 34384.8 hPa ENE 5.1 km/h 7.7 km/h 53 % 0 mm
21:22 -1.2 °C -7.2 °C 34395 hPa NE 5.1 km/h 12.9 km/h 52 % 0 mm
21:27 -1.3 °C -7.2 °C 34395 hPa East 10.3 km/h 12.9 km/h 53 % 0 mm
21:32 -1.3 °C -7.3 °C 34384.8 hPa NE 5.1 km/h 12.9 km/h 52 % 0 mm
21:42 -1.4 °C -7.2 °C 34395 hPa NNE 2.6 km/h 10.3 km/h 54 % 0 mm
21:52 -1.6 °C -7.1 °C 34395 hPa NE 5.1 km/h 7.7 km/h 55 % 0 mm
21:57 -1.6 °C -7.1 °C 34395 hPa NE 2.6 km/h 7.7 km/h 55 % 0 mm
22:02 -1.7 °C -7.1 °C 34405.1 hPa ENE 2.6 km/h 7.7 km/h 56 % 0 mm
22:07 -1.8 °C -7.1 °C 34405.1 hPa NE 5.1 km/h 7.7 km/h 57 % 0 mm
22:17 -2.1 °C -6.8 °C 34405.1 hPa Calm   7.7 km/h 60 % 0 mm
22:22 -2.3 °C -7 °C 34405.1 hPa WNW 2.6 km/h 5.1 km/h 60 % 0 mm
22:27 -2.3 °C -7.1 °C 34395 hPa Calm   2.6 km/h 60 % 0 mm
22:32 -2.3 °C -7.1 °C 34395 hPa Calm   2.6 km/h 60 % 0 mm
22:37 -2.3 °C -7.1 °C 34395 hPa NNE 5.1 km/h 5.1 km/h 60 % 0 mm
22:42 -2.2 °C -6.9 °C 34405.1 hPa Calm   5.1 km/h 60 % 0 mm
22:47 -2.3 °C -6.8 °C 34405.1 hPa Calm   5.1 km/h 61 % 0 mm
22:52 -2.4 °C -6.9 °C 34418.7 hPa Calm   5.1 km/h 61 % 0 mm
22:57 -2.7 °C -6.7 °C 34442.4 hPa SW 46.7 km/h 46.7 km/h 65 % 0 mm
23:07 -4.3 °C -7.2 °C 34452.6 hPa WSW 49.2 km/h 59.5 km/h 73 % 0 mm
23:12 -4.7 °C -7.3 °C 34462.7 hPa WSW 33.6 km/h 62.1 km/h 75 % 0 mm
23:17 -4.8 °C -7.3 °C 34462.7 hPa SW 31.1 km/h 62.1 km/h 76 % 0 mm
23:22 -4.8 °C -7.3 °C 34462.7 hPa WSW 49.2 km/h 62.1 km/h 76 % 0 mm
23:27 -5.2 °C -7.4 °C 34462.7 hPa West 20.8 km/h 59.5 km/h 78 % 0 mm
23:32 -5.4 °C -7.4 °C 34452.6 hPa West 25.9 km/h 59.5 km/h 80 % 0 mm
23:37 -5.3 °C -7.7 °C 34442.4 hPa WNW 15.6 km/h 59.5 km/h 77 % 0 mm
23:42 -5.2 °C -7.5 °C 34442.4 hPa WNW 20.8 km/h 46.7 km/h 77 % 0 mm
23:52 -5.2 °C -7.4 °C 34428.8 hPa West 12.9 km/h 33.6 km/h 78 % 0 mm
Meteo18
Compliments of Weather Underground - 4 mb

Script developed by  Jim McMurry - jmcmurry@mwt.net Adapted for the template by  Wim van der Kuil - Leuven-Template.eu

You find our weather info also at:

European Weather Network

Weather Underground

Equipment we use:

Weather-station
Davis Vue

Weather-program
Meteobridge

Weather-server
Raspberry PI 2 B+

Provider
1 and 1

Davis Vue

Meteobridge

Raspberry PI 2 B+

1 and 1